createdAt,value
2017-02-22T00:00:23.043Z,4.77
2017-02-22T00:01:37.589Z,4.88
2017-02-22T00:02:23.091Z,4.77
2017-02-22T00:03:23.096Z,4.73
2017-02-22T00:04:23.131Z,4.85
2017-02-22T00:05:23.130Z,4.73
2017-02-22T00:06:23.147Z,4.72
2017-02-22T00:07:23.176Z,4.7
2017-02-22T00:08:23.183Z,4.82
2017-02-22T00:10:23.224Z,4.82
2017-02-22T00:11:37.771Z,4.77
2017-02-22T00:12:23.282Z,4.77
2017-02-22T00:13:23.283Z,4.75
2017-02-22T00:14:23.297Z,4.77
2017-02-22T00:15:23.304Z,4.73
2017-02-22T00:16:23.335Z,4.82
2017-02-22T00:17:23.347Z,4.77
2017-02-22T00:18:23.357Z,4.77
2017-02-22T00:19:23.375Z,4.75
2017-02-22T00:21:23.417Z,4.66
2017-02-22T00:23:23.443Z,4.75
2017-02-22T00:25:23.507Z,4.73
2017-02-22T00:26:23.500Z,4.63
2017-02-22T00:27:23.515Z,4.65
2017-02-22T00:28:38.509Z,4.63
2017-02-22T00:29:23.548Z,4.63
2017-02-22T00:30:38.097Z,4.66
2017-02-22T00:31:23.585Z,4.63
2017-02-22T00:32:38.130Z,4.66
2017-02-22T00:33:23.231Z,4.63
2017-02-22T00:34:38.161Z,4.62
2017-02-22T00:35:23.653Z,4.55
2017-02-22T00:36:23.667Z,4.59
2017-02-22T00:37:23.698Z,4.58
2017-02-22T00:38:23.704Z,4.62
2017-02-22T00:39:23.719Z,4.58
2017-02-22T00:40:23.741Z,4.62
2017-02-22T00:41:23.789Z,4.54
2017-02-22T00:43:23.416Z,4.45
2017-02-22T00:44:38.336Z,4.54
2017-02-22T00:45:23.826Z,4.58
2017-02-22T00:46:23.842Z,4.5
2017-02-22T00:47:23.859Z,4.54
2017-02-22T00:48:23.876Z,4.48
2017-02-22T00:49:23.892Z,4.44
2017-02-22T00:50:23.910Z,4.45
2017-02-22T00:51:23.943Z,4.48
2017-02-22T00:52:23.944Z,4.45
2017-02-22T00:53:38.487Z,4.3
2017-02-22T00:54:23.978Z,4.47
2017-02-22T00:55:24.011Z,4.42
2017-02-22T00:57:24.028Z,4.41
2017-02-22T00:58:24.063Z,4.44
2017-02-22T00:59:24.080Z,4.5
2017-02-22T01:00:38.609Z,4.47
2017-02-22T01:01:38.631Z,4.41
2017-02-22T01:02:24.120Z,4.55
2017-02-22T01:03:24.138Z,4.55
2017-02-22T01:04:24.179Z,4.55
2017-02-22T01:05:24.179Z,4.65
2017-02-22T01:06:24.189Z,4.63
2017-02-22T01:07:24.206Z,4.47
2017-02-22T01:08:24.218Z,4.44
2017-02-22T01:09:24.236Z,4.45
2017-02-22T01:13:24.308Z,4.65
2017-02-22T01:14:23.937Z,4.48
2017-02-22T01:15:24.357Z,4.54
2017-02-22T01:16:38.884Z,4.47
2017-02-22T01:17:24.376Z,4.45
2017-02-22T01:18:24.394Z,4.47
2017-02-22T01:19:24.406Z,4.36
2017-02-22T01:20:24.426Z,4.37
2017-02-22T01:21:24.455Z,4.34
2017-02-22T01:22:38.987Z,4.22
2017-02-22T01:23:24.478Z,4.27
2017-02-22T01:24:24.492Z,4.34
2017-02-22T01:25:24.510Z,4.32
2017-02-22T01:26:24.526Z,4.36
2017-02-22T01:27:24.546Z,4.4
2017-02-22T01:28:24.562Z,4.4
2017-02-22T01:29:24.578Z,4.36
2017-02-22T01:30:24.595Z,4.37
2017-02-22T01:31:39.142Z,4.41
2017-02-22T01:32:24.644Z,4.36
2017-02-22T01:33:39.179Z,4.47
2017-02-22T01:34:24.673Z,4.44
2017-02-22T01:35:24.681Z,4.52
2017-02-22T01:36:24.313Z,4.5
2017-02-22T01:37:39.242Z,4.59
2017-02-22T01:38:24.735Z,4.6
2017-02-22T01:39:24.748Z,4.7
2017-02-22T01:40:24.381Z,4.66
2017-02-22T01:41:24.783Z,4.7
2017-02-22T01:42:24.812Z,4.72
2017-02-22T01:43:24.430Z,4.65
2017-02-22T01:44:24.840Z,4.69
2017-02-22T01:46:24.095Z,4.58
2017-02-22T01:47:24.500Z,4.59
2017-02-22T01:48:24.905Z,4.58
2017-02-22T01:49:24.922Z,4.55
2017-02-22T01:50:24.941Z,4.45
2017-02-22T01:51:24.954Z,4.47
2017-02-22T01:52:24.971Z,4.47
2017-02-22T01:53:24.991Z,4.44
2017-02-22T01:54:25.006Z,4.44
2017-02-22T01:55:24.636Z,4.42
2017-02-22T01:56:25.040Z,4.44
2017-02-22T01:57:25.060Z,4.62
2017-02-22T01:58:25.095Z,4.58
2017-02-22T02:00:25.119Z,4.66
2017-02-22T02:01:25.129Z,4.69
2017-02-22T02:02:24.389Z,4.65
2017-02-22T02:03:39.687Z,4.69
2017-02-22T02:04:25.178Z,4.77
2017-02-22T02:05:24.807Z,4.72
2017-02-22T02:06:25.210Z,4.7
2017-02-22T02:07:25.244Z,4.73
2017-02-22T02:08:24.859Z,4.89
2017-02-22T02:09:24.890Z,4.94
2017-02-22T02:10:25.280Z,4.84
2017-02-22T02:11:24.922Z,4.84
2017-02-22T02:12:25.327Z,4.84
2017-02-22T02:13:25.344Z,4.8
2017-02-22T02:14:25.345Z,4.73
2017-02-22T02:15:25.381Z,4.82
2017-02-22T02:16:25.386Z,4.88
2017-02-22T02:17:25.410Z,4.91
2017-02-22T02:18:25.421Z,4.92
2017-02-22T02:19:39.962Z,4.99
2017-02-22T02:20:25.450Z,5.03
2017-02-22T02:21:25.467Z,4.96
2017-02-22T02:22:25.484Z,4.92
2017-02-22T02:23:25.501Z,4.94
2017-02-22T02:24:40.047Z,4.96
2017-02-22T02:25:25.541Z,5
2017-02-22T02:26:25.555Z,4.85
2017-02-22T02:27:25.582Z,4.91
2017-02-22T02:28:25.602Z,4.92
2017-02-22T02:29:25.619Z,4.85
2017-02-22T02:30:25.628Z,4.97
2017-02-22T02:31:25.259Z,4.92
2017-02-22T02:32:25.657Z,5.12
2017-02-22T02:33:25.676Z,5.18
2017-02-22T02:34:25.692Z,5.24
2017-02-22T02:35:40.238Z,5.22
2017-02-22T02:36:25.737Z,5.21
2017-02-22T02:37:25.755Z,5.31
2017-02-22T02:38:25.774Z,5.3
2017-02-22T02:39:25.776Z,5.42
2017-02-22T02:40:25.795Z,5.46
2017-02-22T02:41:25.820Z,5.42
2017-02-22T02:42:25.837Z,5.48
2017-02-22T02:43:25.856Z,5.57
2017-02-22T02:44:25.867Z,5.39
2017-02-22T02:45:25.880Z,5.51
2017-02-22T02:47:25.918Z,5.61
2017-02-22T02:48:25.937Z,5.53
2017-02-22T02:49:25.568Z,5.46
2017-02-22T02:50:25.968Z,5.57
2017-02-22T02:51:40.512Z,5.51
2017-02-22T02:52:26.003Z,5.51
2017-02-22T02:53:26.026Z,5.49
2017-02-22T02:54:26.064Z,5.54
2017-02-22T02:55:25.666Z,5.56
2017-02-22T02:56:40.600Z,5.49
2017-02-22T02:57:26.101Z,5.49
2017-02-22T02:58:26.109Z,5.65
2017-02-22T02:59:26.124Z,5.68
2017-02-22T03:00:25.757Z,5.78
2017-02-22T03:02:26.179Z,5.65
2017-02-22T03:03:25.807Z,5.75
2017-02-22T03:04:26.215Z,5.82
2017-02-22T03:05:25.860Z,5.76
2017-02-22T03:06:40.785Z,5.82
2017-02-22T03:07:25.875Z,5.97
2017-02-22T03:08:26.286Z,5.94
2017-02-22T03:09:26.298Z,5.83
2017-02-22T03:10:26.334Z,5.82
2017-02-22T03:11:40.863Z,5.82
2017-02-22T03:12:26.359Z,5.86
2017-02-22T03:13:26.008Z,5.94
2017-02-22T03:14:26.400Z,5.94
2017-02-22T03:15:26.403Z,5.93
2017-02-22T03:16:26.426Z,6.03
2017-02-22T03:17:26.437Z,5.94
2017-02-22T03:18:26.457Z,5.96
2017-02-22T03:19:26.477Z,5.99
2017-02-22T03:20:26.104Z,5.97
2017-02-22T03:21:41.043Z,5.99
2017-02-22T03:22:26.151Z,6.03
2017-02-22T03:23:26.170Z,5.94
2017-02-22T03:24:26.176Z,5.96
2017-02-22T03:25:26.591Z,5.99
2017-02-22T03:26:26.601Z,6.06
2017-02-22T03:27:26.649Z,6.01
2017-02-22T03:28:25.862Z,6.09
2017-02-22T03:29:26.649Z,6.08
2017-02-22T03:30:26.675Z,6.06
2017-02-22T03:31:26.704Z,6.08
2017-02-22T03:32:26.716Z,6.15
2017-02-22T03:33:26.722Z,6.17
2017-02-22T03:34:26.737Z,6.12
2017-02-22T03:35:26.760Z,6.08
2017-02-22T03:36:26.772Z,6.04
2017-02-22T03:37:26.797Z,6.09
2017-02-22T03:39:26.823Z,6.15
2017-02-22T03:40:26.851Z,6.3
2017-02-22T03:41:26.858Z,6.15
2017-02-22T03:42:26.886Z,6.12
2017-02-22T03:43:26.899Z,6.11
2017-02-22T03:44:26.925Z,6.08
2017-02-22T03:45:26.938Z,6.06
2017-02-22T03:46:26.964Z,6.09
2017-02-22T03:48:26.990Z,5.97
2017-02-22T03:49:27.017Z,6.04
2017-02-22T03:50:27.019Z,6.17
2017-02-22T03:52:27.056Z,6.08
2017-02-22T03:53:27.108Z,6.14
2017-02-22T03:54:41.617Z,6.11
2017-02-22T03:55:27.112Z,6.15
2017-02-22T03:56:27.433Z,6.11
2017-02-22T03:57:27.145Z,6.08
2017-02-22T03:58:26.786Z,6.09
2017-02-22T03:59:27.185Z,6.19
2017-02-22T04:00:27.211Z,6.12
2017-02-22T04:01:26.826Z,6.15
2017-02-22T04:02:41.373Z,6.18
2017-02-22T04:03:27.250Z,6.17
2017-02-22T04:04:27.290Z,6.31
2017-02-22T04:05:27.290Z,6.27
2017-02-22T04:06:27.321Z,6.22
2017-02-22T04:07:27.322Z,6.27
2017-02-22T04:09:27.355Z,6.21
2017-02-22T04:10:41.901Z,6.17
2017-02-22T04:11:27.391Z,6.18
2017-02-22T04:12:27.415Z,6.18
2017-02-22T04:13:41.957Z,6.19
2017-02-22T04:14:27.450Z,6.21
2017-02-22T04:15:27.472Z,6.27
2017-02-22T04:16:27.492Z,6.28
2017-02-22T04:17:27.507Z,6.41
2017-02-22T04:18:27.551Z,6.48
2017-02-22T04:19:27.532Z,6.44
2017-02-22T04:20:27.560Z,6.44
2017-02-22T04:23:27.607Z,6.38
2017-02-22T04:25:27.656Z,6.55
2017-02-22T04:26:42.186Z,6.64
2017-02-22T04:27:27.677Z,6.62
2017-02-22T04:28:27.691Z,6.58
2017-02-22T04:29:27.711Z,6.67
2017-02-22T04:30:27.755Z,6.58
2017-02-22T04:31:27.744Z,6.61
2017-02-22T04:32:27.766Z,6.73
2017-02-22T04:34:27.800Z,6.71
2017-02-22T04:35:27.830Z,6.73
2017-02-22T04:36:27.459Z,6.73
2017-02-22T04:37:27.853Z,6.73
2017-02-22T04:38:27.870Z,6.71
2017-02-22T04:39:27.909Z,6.76
2017-02-22T04:40:27.905Z,6.7
2017-02-22T04:41:42.458Z,6.87
2017-02-22T04:42:27.564Z,6.8
2017-02-22T04:43:27.960Z,6.81
2017-02-22T04:44:42.508Z,6.76
2017-02-22T04:45:28.001Z,6.84
2017-02-22T04:46:42.545Z,6.76
2017-02-22T04:47:28.031Z,6.84
2017-02-22T04:48:28.058Z,6.8
2017-02-22T04:49:28.082Z,6.97
2017-02-22T04:50:28.095Z,6.95
2017-02-22T04:51:28.102Z,6.85
2017-02-22T04:52:28.123Z,7.03
2017-02-22T04:53:27.772Z,6.95
2017-02-22T04:54:28.160Z,6.99
2017-02-22T04:55:28.175Z,6.97
2017-02-22T04:56:28.200Z,6.97
2017-02-22T04:57:28.229Z,6.98
2017-02-22T04:58:28.243Z,6.98
2017-02-22T05:00:28.264Z,6.94
2017-02-22T05:01:28.293Z,7.02
2017-02-22T05:02:28.302Z,7.09
2017-02-22T05:03:28.325Z,7.12
2017-02-22T05:04:28.350Z,7.09
2017-02-22T05:05:28.352Z,7.09
2017-02-22T05:06:28.003Z,7.07
2017-02-22T05:07:28.392Z,7.09
2017-02-22T05:09:28.436Z,7.12
2017-02-22T05:10:28.445Z,7.1
2017-02-22T05:11:28.464Z,7.13
2017-02-22T05:12:28.511Z,7.17
2017-02-22T05:13:43.042Z,7.09
2017-02-22T05:14:28.131Z,7.27
2017-02-22T05:15:28.537Z,7.23
2017-02-22T05:16:28.581Z,7.24
2017-02-22T05:17:28.579Z,7.25
2017-02-22T05:18:28.590Z,7.27
2017-02-22T05:19:28.640Z,7.28
2017-02-22T05:21:28.643Z,7.28
2017-02-22T05:22:28.661Z,7.25
2017-02-22T05:23:28.683Z,7.24
2017-02-22T05:24:28.723Z,7.23
2017-02-22T05:25:28.715Z,7.31
2017-02-22T05:26:28.730Z,7.27
2017-02-22T05:27:28.387Z,7.25
2017-02-22T05:28:28.770Z,7.21
2017-02-22T05:29:43.317Z,7.27
2017-02-22T05:30:28.807Z,7.24
2017-02-22T05:31:28.836Z,7.37
2017-02-22T05:32:28.853Z,7.37
2017-02-22T05:33:28.864Z,7.37
2017-02-22T05:34:28.883Z,7.28
2017-02-22T05:35:28.915Z,7.35
2017-02-22T05:37:28.948Z,7.35
2017-02-22T05:38:28.952Z,7.37
2017-02-22T05:39:28.972Z,7.37
2017-02-22T05:40:28.999Z,7.43
2017-02-22T05:41:28.629Z,7.34
2017-02-22T05:42:29.028Z,7.45
2017-02-22T05:43:29.060Z,7.42
2017-02-22T05:44:29.070Z,7.4
2017-02-22T05:45:43.608Z,7.4
2017-02-22T05:46:29.096Z,7.4
2017-02-22T05:49:29.158Z,7.46
2017-02-22T05:50:43.699Z,7.52
2017-02-22T05:51:43.717Z,7.5
2017-02-22T05:52:29.244Z,7.53
2017-02-22T05:53:29.240Z,7.57
2017-02-22T05:54:43.785Z,7.49
2017-02-22T05:55:29.263Z,7.61
2017-02-22T05:56:29.289Z,7.6
2017-02-22T05:57:29.301Z,7.49
2017-02-22T05:58:29.322Z,7.55
2017-02-22T05:59:29.337Z,7.63
2017-02-22T06:00:29.356Z,7.72
2017-02-22T06:01:43.899Z,7.61
2017-02-22T06:02:29.389Z,7.55
2017-02-22T06:03:29.414Z,7.67
2017-02-22T06:04:29.428Z,7.61
2017-02-22T06:05:43.976Z,7.63
2017-02-22T06:06:29.093Z,7.63
2017-02-22T06:07:29.485Z,7.58
2017-02-22T06:09:29.523Z,7.68
2017-02-22T06:10:29.538Z,7.69
2017-02-22T06:11:29.184Z,7.8
2017-02-22T06:12:29.589Z,7.74
2017-02-22T06:13:29.601Z,7.89
2017-02-22T06:14:29.623Z,7.86
2017-02-22T06:15:29.632Z,7.85
2017-02-22T06:16:44.181Z,7.87
2017-02-22T06:17:29.675Z,7.98
2017-02-22T06:18:29.693Z,7.9
2017-02-22T06:19:29.707Z,7.95
2017-02-22T06:20:29.730Z,8.04
2017-02-22T06:21:29.757Z,8.07
2017-02-22T06:22:29.764Z,7.97
2017-02-22T06:23:29.786Z,8.02
2017-02-22T06:24:29.799Z,8.08
2017-02-22T06:25:29.819Z,8.11
2017-02-22T06:26:29.852Z,8.22
2017-02-22T06:27:29.876Z,8.1
2017-02-22T06:28:29.887Z,8.25
2017-02-22T06:29:29.894Z,8.19
2017-02-22T06:30:29.913Z,8.23
2017-02-22T06:31:29.938Z,8.2
2017-02-22T06:32:29.951Z,8.25
2017-02-22T06:33:29.972Z,8.26
2017-02-22T06:34:30.388Z,8.3
2017-02-22T06:35:30.018Z,8.33
2017-02-22T06:36:30.023Z,8.34
2017-02-22T06:37:30.058Z,8.33
2017-02-22T06:38:30.058Z,8.44
2017-02-22T06:39:30.087Z,8.28
2017-02-22T06:40:30.103Z,8.38
2017-02-22T06:41:30.123Z,8.44
2017-02-22T06:42:30.137Z,8.37
2017-02-22T06:43:29.769Z,8.45
2017-02-22T06:44:30.183Z,8.43
2017-02-22T06:45:30.200Z,8.56
2017-02-22T06:46:30.227Z,8.53
2017-02-22T06:47:30.248Z,8.55
2017-02-22T06:48:44.778Z,8.55
2017-02-22T06:49:30.269Z,8.55
2017-02-22T06:50:30.287Z,8.58
2017-02-22T06:51:30.307Z,8.55
2017-02-22T06:52:44.854Z,8.56
2017-02-22T06:53:30.341Z,8.55
2017-02-22T06:54:30.368Z,8.56
2017-02-22T06:55:30.380Z,8.66
2017-02-22T06:56:30.411Z,8.73
2017-02-22T06:57:30.425Z,8.7
2017-02-22T06:58:30.501Z,8.79
2017-02-22T06:59:30.461Z,8.81
2017-02-22T07:00:30.478Z,8.86
2017-02-22T07:01:30.496Z,8.84
2017-02-22T07:03:30.534Z,8.84
2017-02-22T07:04:45.082Z,8.91
2017-02-22T07:05:30.576Z,8.83
2017-02-22T07:06:30.600Z,8.92
2017-02-22T07:07:30.610Z,8.92
2017-02-22T07:08:45.182Z,8.95
2017-02-22T07:09:30.657Z,9.1
2017-02-22T07:10:30.667Z,9.13
2017-02-22T07:11:30.693Z,9.02
2017-02-22T07:12:30.716Z,9.23
2017-02-22T07:13:30.742Z,9.13
2017-02-22T07:14:30.743Z,9.2
2017-02-22T07:15:30.778Z,9.17
2017-02-22T07:16:30.785Z,9.26
2017-02-22T07:17:30.810Z,9.28
2017-02-22T07:18:30.833Z,9.33
2017-02-22T07:19:30.865Z,9.42
2017-02-22T07:20:45.396Z,9.26
2017-02-22T07:21:30.883Z,9.36
2017-02-22T07:22:30.898Z,9.43
2017-02-22T07:23:30.921Z,9.38
2017-02-22T07:24:30.942Z,9.42
2017-02-22T07:25:45.487Z,9.47
2017-02-22T07:26:30.979Z,9.47
2017-02-22T07:27:30.997Z,9.43
2017-02-22T07:28:31.026Z,9.53
2017-02-22T07:29:31.034Z,9.6
2017-02-22T07:30:31.091Z,9.56
2017-02-22T07:31:31.082Z,9.61
2017-02-22T07:32:31.094Z,9.56
2017-02-22T07:34:31.132Z,9.64
2017-02-22T07:35:31.167Z,9.6
2017-02-22T07:37:31.194Z,9.56
2017-02-22T07:38:31.243Z,9.71
2017-02-22T07:39:31.255Z,9.71
2017-02-22T07:40:31.251Z,9.74
2017-02-22T07:41:31.284Z,9.64
2017-02-22T07:42:45.818Z,9.68
2017-02-22T07:43:31.322Z,9.68
2017-02-22T07:44:31.333Z,9.86
2017-02-22T07:45:31.352Z,9.68
2017-02-22T07:46:31.371Z,9.74
2017-02-22T07:47:31.392Z,9.91
2017-02-22T07:48:31.413Z,9.83
2017-02-22T07:49:31.431Z,9.9
2017-02-22T07:50:31.450Z,9.93
2017-02-22T07:51:46.001Z,9.91
2017-02-22T07:52:31.505Z,9.87
2017-02-22T07:53:31.514Z,9.99
2017-02-22T07:54:31.531Z,9.99
2017-02-22T07:55:31.562Z,10.01
2017-02-22T07:56:31.571Z,9.99
2017-02-22T07:57:31.614Z,10.08
2017-02-22T07:58:31.614Z,10.04
2017-02-22T07:59:31.633Z,10.07
2017-02-22T08:00:31.648Z,9.97
2017-02-22T08:02:31.695Z,10.08
2017-02-22T08:03:31.722Z,10.07
2017-02-22T08:04:46.264Z,10.12
2017-02-22T08:05:31.749Z,10.15
2017-02-22T08:06:31.779Z,10.2
2017-02-22T08:07:31.790Z,10.26
2017-02-22T08:08:31.812Z,10.27
2017-02-22T08:09:31.860Z,10.26
2017-02-22T08:10:31.863Z,10.33
2017-02-22T08:11:31.872Z,10.34
2017-02-22T08:12:31.896Z,10.4
2017-02-22T08:13:31.925Z,10.4
2017-02-22T08:14:31.943Z,10.47
2017-02-22T08:15:31.953Z,10.45
2017-02-22T08:16:31.972Z,10.48
2017-02-22T08:18:32.023Z,10.61
2017-02-22T08:19:32.042Z,10.63
2017-02-22T08:20:32.050Z,10.61
2017-02-22T08:21:32.072Z,10.63
2017-02-22T08:22:32.092Z,10.71
2017-02-22T08:23:46.678Z,10.68
2017-02-22T08:24:46.663Z,10.73
2017-02-22T08:25:32.160Z,10.74
2017-02-22T08:26:32.181Z,10.82
2017-02-22T08:27:32.191Z,10.81
2017-02-22T08:28:32.233Z,10.79
2017-02-22T08:29:32.265Z,10.7
2017-02-22T08:30:31.879Z,10.78
2017-02-22T08:31:31.893Z,10.79
2017-02-22T08:32:46.818Z,10.71
2017-02-22T08:33:32.328Z,10.74
2017-02-22T08:34:32.337Z,10.76
2017-02-22T08:35:32.383Z,10.67
2017-02-22T08:36:32.383Z,10.7
2017-02-22T08:37:32.406Z,10.68
2017-02-22T08:38:32.422Z,10.63
2017-02-22T08:39:46.964Z,10.66
2017-02-22T08:40:46.991Z,10.71
2017-02-22T08:41:32.479Z,10.6
2017-02-22T08:42:32.517Z,10.68
2017-02-22T08:43:32.522Z,10.67
2017-02-22T08:44:32.536Z,10.67
2017-02-22T08:45:32.560Z,10.67
2017-02-22T08:46:32.595Z,10.64
2017-02-22T08:47:32.602Z,10.73
2017-02-22T08:49:32.640Z,10.64
2017-02-22T08:50:32.662Z,10.67
2017-02-22T08:51:32.680Z,10.64
2017-02-22T08:52:32.703Z,10.67
2017-02-22T08:53:32.732Z,10.76
2017-02-22T08:54:47.279Z,10.73
2017-02-22T08:55:47.293Z,10.82
2017-02-22T08:56:32.784Z,10.84
2017-02-22T08:57:32.804Z,10.84
2017-02-22T08:58:32.828Z,10.97
2017-02-22T08:59:32.852Z,10.89
2017-02-22T09:00:32.869Z,11.04
2017-02-22T09:01:32.910Z,11.15
2017-02-22T09:02:32.914Z,11.09
2017-02-22T09:03:32.925Z,11.18
2017-02-22T09:05:32.979Z,11.25
2017-02-22T09:06:32.991Z,11.32
2017-02-22T09:07:33.025Z,11.36
2017-02-22T09:08:33.032Z,11.28
2017-02-22T09:09:33.067Z,11.33
2017-02-22T09:10:33.072Z,11.24
2017-02-22T09:11:47.622Z,11.32
2017-02-22T09:12:33.115Z,11.35
2017-02-22T09:13:33.135Z,11.42
2017-02-22T09:14:33.167Z,11.46
2017-02-22T09:15:33.187Z,11.4
2017-02-22T09:16:33.208Z,11.47
2017-02-22T09:17:33.235Z,11.36
2017-02-22T09:19:33.267Z,11.42
2017-02-22T09:20:33.286Z,11.42
2017-02-22T09:21:33.313Z,11.43
2017-02-22T09:22:33.329Z,11.44
2017-02-22T09:23:33.350Z,11.39
2017-02-22T09:24:33.399Z,11.44
2017-02-22T09:25:33.391Z,11.39
2017-02-22T09:26:47.939Z,11.4
2017-02-22T09:27:33.431Z,11.42
2017-02-22T09:28:33.450Z,11.39
2017-02-22T09:29:33.475Z,11.4
2017-02-22T09:30:33.496Z,11.29
2017-02-22T09:31:48.043Z,11.39
2017-02-22T09:32:33.563Z,11.28
2017-02-22T09:33:33.561Z,11.28
2017-02-22T09:34:33.581Z,11.25
2017-02-22T09:35:33.612Z,11.25
2017-02-22T09:36:33.618Z,11.25
2017-02-22T09:37:33.643Z,11.22
2017-02-22T09:38:33.277Z,11.25
2017-02-22T09:39:33.698Z,11.24
2017-02-22T09:40:33.702Z,11.22
2017-02-22T09:41:33.725Z,11.21
2017-02-22T09:42:33.746Z,11.25
2017-02-22T09:43:33.764Z,11.18
2017-02-22T09:44:33.788Z,11.25
2017-02-22T09:45:33.810Z,11.21
2017-02-22T09:46:33.839Z,11.18
2017-02-22T09:47:48.379Z,11.27
2017-02-22T09:48:33.880Z,11.28
2017-02-22T09:49:33.901Z,11.29
2017-02-22T09:50:48.455Z,11.25
2017-02-22T09:51:33.934Z,11.27
2017-02-22T09:52:33.963Z,11.24
2017-02-22T09:53:33.977Z,11.25
2017-02-22T09:54:34.008Z,11.25
2017-02-22T09:55:48.555Z,11.28
2017-02-22T09:56:34.050Z,11.28
2017-02-22T09:57:34.066Z,11.37
2017-02-22T09:58:48.232Z,11.37
2017-02-22T09:59:34.101Z,11.27
2017-02-22T10:00:34.121Z,11.21
2017-02-22T10:01:34.148Z,11.37
2017-02-22T10:02:34.165Z,11.33
2017-02-22T10:03:34.190Z,11.29
2017-02-22T10:04:48.737Z,11.35
2017-02-22T10:05:34.259Z,11.27
2017-02-22T10:08:34.294Z,11.27
2017-02-22T10:10:34.335Z,11.24
2017-02-22T10:11:34.353Z,11.27
2017-02-22T10:12:34.375Z,11.29
2017-02-22T10:13:34.406Z,11.28
2017-02-22T10:14:48.971Z,11.19
2017-02-22T10:15:48.988Z,11.22
2017-02-22T10:16:34.461Z,11.35
2017-02-22T10:17:34.482Z,11.27
2017-02-22T10:18:34.503Z,11.39
2017-02-22T10:19:34.541Z,11.35
2017-02-22T10:20:34.544Z,11.44
2017-02-22T10:21:34.568Z,11.36
2017-02-22T10:22:34.597Z,11.36
2017-02-22T10:23:34.611Z,11.4
2017-02-22T10:24:34.631Z,11.36
2017-02-22T10:25:34.650Z,11.33
2017-02-22T10:26:34.692Z,11.36
2017-02-22T10:28:34.714Z,11.33
2017-02-22T10:29:34.743Z,11.35
2017-02-22T10:30:49.284Z,11.28
2017-02-22T10:31:34.789Z,11.33
2017-02-22T10:32:34.809Z,11.29
2017-02-22T10:33:34.821Z,11.24
2017-02-22T10:34:34.842Z,11.24
2017-02-22T10:35:34.860Z,11.33
2017-02-22T10:36:34.884Z,11.32
2017-02-22T10:37:34.918Z,11.27
2017-02-22T10:38:34.936Z,11.37
2017-02-22T10:39:49.487Z,11.4
2017-02-22T10:40:34.992Z,11.43
2017-02-22T10:41:34.995Z,11.44
2017-02-22T10:42:35.033Z,11.44
2017-02-22T10:43:35.031Z,11.49
2017-02-22T10:44:35.077Z,11.46
2017-02-22T10:45:35.077Z,11.49
2017-02-22T10:46:49.628Z,11.47
2017-02-22T10:47:35.118Z,11.51
2017-02-22T10:48:49.686Z,11.44
2017-02-22T10:49:35.168Z,11.47
2017-02-22T10:50:49.710Z,11.46
2017-02-22T10:51:35.205Z,11.46
2017-02-22T10:52:35.248Z,11.33
2017-02-22T10:53:35.254Z,11.37
2017-02-22T10:54:35.266Z,11.36
2017-02-22T10:55:35.286Z,11.43
2017-02-22T10:56:35.313Z,11.37
2017-02-22T10:57:35.330Z,11.35
2017-02-22T10:58:35.351Z,11.32
2017-02-22T10:59:35.373Z,11.35
2017-02-22T11:00:35.395Z,11.42
2017-02-22T11:01:49.959Z,11.25
2017-02-22T11:02:35.443Z,11.32
2017-02-22T11:03:35.459Z,11.29
2017-02-22T11:04:35.509Z,11.29
2017-02-22T11:05:35.512Z,11.32
2017-02-22T11:07:35.546Z,11.42
2017-02-22T11:08:35.564Z,11.42
2017-02-22T11:09:35.613Z,11.46
2017-02-22T11:10:35.607Z,11.28
2017-02-22T11:11:35.633Z,11.39
2017-02-22T11:12:35.656Z,11.47
2017-02-22T11:13:35.675Z,11.37
2017-02-22T11:14:35.705Z,11.36
2017-02-22T11:15:35.729Z,11.37
2017-02-22T11:16:35.765Z,11.35
2017-02-22T11:17:35.762Z,11.36
2017-02-22T11:18:35.784Z,11.27
2017-02-22T11:20:35.821Z,11.4
2017-02-22T11:21:35.844Z,11.43
2017-02-22T11:22:35.878Z,11.46
2017-02-22T11:23:35.886Z,11.47
2017-02-22T11:24:35.920Z,11.35
2017-02-22T11:26:35.966Z,11.43
2017-02-22T11:27:35.982Z,11.49
2017-02-22T11:28:35.993Z,11.43
2017-02-22T11:29:36.033Z,11.54
2017-02-22T11:30:36.048Z,11.57
2017-02-22T11:31:36.058Z,11.57
2017-02-22T11:33:50.628Z,11.62
2017-02-22T11:34:36.122Z,11.54
2017-02-22T11:35:36.150Z,11.52
2017-02-22T11:36:36.162Z,11.57
2017-02-22T11:37:36.183Z,11.54
2017-02-22T11:38:36.211Z,11.47
2017-02-22T11:39:36.234Z,11.55
2017-02-22T11:40:35.870Z,11.54
2017-02-22T11:41:36.292Z,11.54
2017-02-22T11:42:36.295Z,11.61
2017-02-22T11:43:36.322Z,11.54
2017-02-22T11:44:36.348Z,11.51
2017-02-22T11:45:36.358Z,11.49
2017-02-22T11:46:36.383Z,11.51
2017-02-22T11:47:36.403Z,11.4
2017-02-22T11:48:36.420Z,11.52
2017-02-22T11:49:50.979Z,11.42
2017-02-22T11:50:36.466Z,11.33
2017-02-22T11:51:36.515Z,11.4
2017-02-22T11:52:36.507Z,11.29
2017-02-22T11:53:36.528Z,11.37
2017-02-22T11:54:36.549Z,11.36
2017-02-22T11:55:36.593Z,11.35
2017-02-22T11:56:36.592Z,11.43
2017-02-22T11:57:36.226Z,11.43
2017-02-22T11:58:36.643Z,11.51
2017-02-22T11:59:36.669Z,11.55
2017-02-22T12:00:36.682Z,11.57
2017-02-22T12:01:36.713Z,11.61
2017-02-22T12:02:36.341Z,11.57
2017-02-22T12:03:36.745Z,11.54
2017-02-22T12:04:36.766Z,11.52
2017-02-22T12:05:51.315Z,11.58
2017-02-22T12:06:36.826Z,11.52
2017-02-22T12:07:36.844Z,11.49
2017-02-22T12:08:36.857Z,11.52
2017-02-22T12:09:36.873Z,11.47
2017-02-22T12:10:51.422Z,11.62
2017-02-22T12:11:51.443Z,11.57
2017-02-22T12:12:36.948Z,11.57
2017-02-22T12:13:36.959Z,11.57
2017-02-22T12:14:36.979Z,11.58
2017-02-22T12:15:37.016Z,11.49
2017-02-22T12:16:37.022Z,11.72
2017-02-22T12:17:37.046Z,11.6
2017-02-22T12:18:37.066Z,11.65
2017-02-22T12:19:37.097Z,11.7
2017-02-22T12:20:37.115Z,11.67
2017-02-22T12:21:51.663Z,11.73
2017-02-22T12:22:37.169Z,11.78
2017-02-22T12:23:37.173Z,11.73
2017-02-22T12:24:37.197Z,11.73
2017-02-22T12:25:37.219Z,11.67
2017-02-22T12:26:51.768Z,11.62
2017-02-22T12:27:51.789Z,11.73
2017-02-22T12:28:37.291Z,11.73
2017-02-22T12:29:37.302Z,11.79
2017-02-22T12:30:37.334Z,11.75
2017-02-22T12:31:37.360Z,11.88
2017-02-22T12:32:37.368Z,12.04
2017-02-22T12:33:37.410Z,12.2
2017-02-22T12:34:37.034Z,12.14
2017-02-22T12:35:37.434Z,12.16
2017-02-22T12:36:51.986Z,12.27
2017-02-22T12:37:37.479Z,12.27
2017-02-22T12:38:37.517Z,12.24
2017-02-22T12:39:37.526Z,12.12
2017-02-22T12:40:37.546Z,12.17
2017-02-22T12:41:37.587Z,12.16
2017-02-22T12:42:37.594Z,12.09
2017-02-22T12:43:37.608Z,12.05
2017-02-22T12:44:37.632Z,12.02
2017-02-22T12:45:37.654Z,12.05
2017-02-22T12:46:37.679Z,11.96
2017-02-22T12:47:37.708Z,11.9
2017-02-22T12:48:37.717Z,11.78
2017-02-22T12:50:37.770Z,11.7
2017-02-22T12:51:37.806Z,11.72
2017-02-22T12:52:37.809Z,11.67
2017-02-22T12:53:37.839Z,11.61
2017-02-22T12:54:37.872Z,11.49
2017-02-22T12:55:52.405Z,11.43
2017-02-22T12:56:52.424Z,11.46
2017-02-22T12:57:37.917Z,11.49
2017-02-22T12:58:37.953Z,11.46
2017-02-22T12:59:37.971Z,11.54
2017-02-22T13:00:37.980Z,11.46
2017-02-22T13:02:38.041Z,11.57
2017-02-22T13:03:38.047Z,11.42
2017-02-22T13:04:38.089Z,11.49
2017-02-22T13:05:38.089Z,11.52
2017-02-22T13:06:38.141Z,11.44
2017-02-22T13:07:38.135Z,11.51
2017-02-22T13:08:52.683Z,11.43
2017-02-22T13:09:38.195Z,11.29
2017-02-22T13:10:38.233Z,11.25
2017-02-22T13:11:38.219Z,11.29
2017-02-22T13:12:37.860Z,11.21
2017-02-22T13:13:38.284Z,11.39
2017-02-22T13:14:38.286Z,11.39
2017-02-22T13:16:38.328Z,11.44
2017-02-22T13:19:38.398Z,11.35
2017-02-22T13:20:38.028Z,11.29
2017-02-22T13:21:38.434Z,11.25
2017-02-22T13:22:38.454Z,11.28
2017-02-22T13:23:38.480Z,11.28
2017-02-22T13:24:53.027Z,11.27
2017-02-22T13:25:38.534Z,11.28
2017-02-22T13:26:38.550Z,11.29
2017-02-22T13:27:38.172Z,11.36
2017-02-22T13:28:38.199Z,11.35
2017-02-22T13:29:38.622Z,11.33
2017-02-22T13:30:38.624Z,11.36
2017-02-22T13:31:38.647Z,11.33
2017-02-22T13:32:38.674Z,11.24
2017-02-22T13:33:38.312Z,11.17
2017-02-22T13:34:38.343Z,11.15
2017-02-22T13:35:38.736Z,11.21
2017-02-22T13:36:38.755Z,11.29
2017-02-22T13:38:38.800Z,11.27
2017-02-22T13:39:38.437Z,11.42
2017-02-22T13:40:53.380Z,11.42
2017-02-22T13:41:38.864Z,11.46
2017-02-22T13:42:38.882Z,11.51
2017-02-22T13:43:38.924Z,11.55
2017-02-22T13:44:38.942Z,11.6
2017-02-22T13:45:53.475Z,11.58
2017-02-22T13:46:38.969Z,11.62
2017-02-22T13:47:39.006Z,11.52
2017-02-22T13:48:38.623Z,11.58
2017-02-22T13:49:39.036Z,11.61
2017-02-22T13:50:39.054Z,11.57
2017-02-22T13:51:39.088Z,11.58
2017-02-22T13:52:39.095Z,11.54
2017-02-22T13:53:39.129Z,11.65
2017-02-22T13:54:39.139Z,11.64
2017-02-22T13:55:39.160Z,11.6
2017-02-22T13:56:53.326Z,11.49
2017-02-22T13:57:39.221Z,11.43
2017-02-22T13:58:39.224Z,11.46